sensor_id;sensor_type;location;lat;lon;timestamp;P1;P2;P0
72918;PMS7003;61063;55.700;26.994;2022-07-03T00:00:54;7.1;6.1;5
72918;PMS7003;61063;55.700;26.994;2022-07-03T00:05:54;7.5;6;4.9
72918;PMS7003;61063;55.700;26.994;2022-07-03T00:10:54;6.8;6.1;5
72918;PMS7003;61063;55.700;26.994;2022-07-03T00:15:54;6.8;5.6;4.6
72918;PMS7003;61063;55.700;26.994;2022-07-03T00:21:10;6.2;5.4;4.3
72918;PMS7003;61063;55.700;26.994;2022-07-03T00:25:54;6.9;6.1;5
72918;PMS7003;61063;55.700;26.994;2022-07-03T00:30:54;6.9;5.8;4.7
72918;PMS7003;61063;55.700;26.994;2022-07-03T00:35:54;7.2;6.6;5.3
72918;PMS7003;61063;55.700;26.994;2022-07-03T00:40:54;6.8;6.2;5
72918;PMS7003;61063;55.700;26.994;2022-07-03T00:45:54;7.4;6.2;5
72918;PMS7003;61063;55.700;26.994;2022-07-03T00:50:54;7;6;5
72918;PMS7003;61063;55.700;26.994;2022-07-03T00:55:55;7.7;6.8;5.5
72918;PMS7003;61063;55.700;26.994;2022-07-03T01:00:54;7.5;6.7;5.2
72918;PMS7003;61063;55.700;26.994;2022-07-03T01:05:55;7.7;7;5.4
72918;PMS7003;61063;55.700;26.994;2022-07-03T01:10:57;7.6;6.8;5.4
72918;PMS7003;61063;55.700;26.994;2022-07-03T01:16:00;8.5;7.3;5.8
72918;PMS7003;61063;55.700;26.994;2022-07-03T01:21:00;8.5;6.7;5
72918;PMS7003;61063;55.700;26.994;2022-07-03T01:25:54;9.2;7.2;5.7
72918;PMS7003;61063;55.700;26.994;2022-07-03T01:30:54;7.7;6.7;5.4
72918;PMS7003;61063;55.700;26.994;2022-07-03T01:35:57;7.7;7;5.8
72918;PMS7003;61063;55.700;26.994;2022-07-03T01:40:55;8.2;7.3;5.8
72918;PMS7003;61063;55.700;26.994;2022-07-03T01:45:56;7.3;6.7;5.4
72918;PMS7003;61063;55.700;26.994;2022-07-03T01:50:54;8.5;7.7;6.1
72918;PMS7003;61063;55.700;26.994;2022-07-03T01:55:55;8.7;7.6;6.1
72918;PMS7003;61063;55.700;26.994;2022-07-03T02:01:00;8.8;7.8;6.1
72918;PMS7003;61063;55.700;26.994;2022-07-03T02:05:59;8.2;7.5;6.1
72918;PMS7003;61063;55.700;26.994;2022-07-03T02:11:07;9;7.5;6
72918;PMS7003;61063;55.700;26.994;2022-07-03T02:15:55;9.2;8.1;6.5
72918;PMS7003;61063;55.700;26.994;2022-07-03T02:20:58;9.2;7.7;6.2
72918;PMS7003;61063;55.700;26.994;2022-07-03T02:25:54;8;7;5.8
72918;PMS7003;61063;55.700;26.994;2022-07-03T02:30:55;8.7;7.7;6
72918;PMS7003;61063;55.700;26.994;2022-07-03T02:35:55;9.7;8;6.3
72918;PMS7003;61063;55.700;26.994;2022-07-03T02:41:12;8.2;7.7;6.1
72918;PMS7003;61063;55.700;26.994;2022-07-03T02:46:31;9.7;8.3;6.6
72918;PMS7003;61063;55.700;26.994;2022-07-03T02:50:55;9.3;8;6.5
72918;PMS7003;61063;55.700;26.994;2022-07-03T02:55:58;8.9;7.9;6.4
72918;PMS7003;61063;55.700;26.994;2022-07-03T03:00:58;9.3;7.6;6.3
72918;PMS7003;61063;55.700;26.994;2022-07-03T03:05:55;8.8;8.1;6
72918;PMS7003;61063;55.700;26.994;2022-07-03T03:10:55;8.2;7.4;6.1
72918;PMS7003;61063;55.700;26.994;2022-07-03T03:16:10;9.5;8.1;6.5
72918;PMS7003;61063;55.700;26.994;2022-07-03T03:20:55;9.7;7.8;6.4
72918;PMS7003;61063;55.700;26.994;2022-07-03T03:25:54;9.1;8.2;6.4
72918;PMS7003;61063;55.700;26.994;2022-07-03T03:30:54;9.8;8.3;6.6
72918;PMS7003;61063;55.700;26.994;2022-07-03T03:35:54;8.2;6.9;5.8
72918;PMS7003;61063;55.700;26.994;2022-07-03T03:40:54;9.4;8;6.3
72918;PMS7003;61063;55.700;26.994;2022-07-03T03:45:54;9.8;8.7;6.9
72918;PMS7003;61063;55.700;26.994;2022-07-03T03:50:55;9.2;8.2;6.6
72918;PMS7003;61063;55.700;26.994;2022-07-03T03:56:04;9.7;8.5;7.1
72918;PMS7003;61063;55.700;26.994;2022-07-03T04:00:55;10;8;6.4
72918;PMS7003;61063;55.700;26.994;2022-07-03T04:05:54;9.6;8.4;6.6
72918;PMS7003;61063;55.700;26.994;2022-07-03T04:10:54;8.9;7.6;6.3
72918;PMS7003;61063;55.700;26.994;2022-07-03T04:15:54;9.5;7.6;6.2
72918;PMS7003;61063;55.700;26.994;2022-07-03T04:20:54;9.3;8.3;6.3
72918;PMS7003;61063;55.700;26.994;2022-07-03T04:25:54;9.1;7.7;6
72918;PMS7003;61063;55.700;26.994;2022-07-03T04:30:54;9.7;8.4;6.5
72918;PMS7003;61063;55.700;26.994;2022-07-03T04:35:54;8.1;7.4;5.9
72918;PMS7003;61063;55.700;26.994;2022-07-03T04:40:54;9.4;8.3;6.5
72918;PMS7003;61063;55.700;26.994;2022-07-03T04:45:54;9.8;8.5;6.9
72918;PMS7003;61063;55.700;26.994;2022-07-03T04:50:54;10.2;9;7
72918;PMS7003;61063;55.700;26.994;2022-07-03T04:55:54;9.2;8.3;6.4
72918;PMS7003;61063;55.700;26.994;2022-07-03T05:00:54;9.3;8.3;6.6
72918;PMS7003;61063;55.700;26.994;2022-07-03T05:05:54;9;7.7;5.9
72918;PMS7003;61063;55.700;26.994;2022-07-03T05:10:54;8.9;8.1;6.5
72918;PMS7003;61063;55.700;26.994;2022-07-03T05:15:54;8.7;7.9;6.3
72918;PMS7003;61063;55.700;26.994;2022-07-03T05:20:54;10.1;8.7;6.6
72918;PMS7003;61063;55.700;26.994;2022-07-03T05:25:54;8.6;7.6;6.1
72918;PMS7003;61063;55.700;26.994;2022-07-03T05:30:54;9.1;7.6;6.2
72918;PMS7003;61063;55.700;26.994;2022-07-03T05:35:55;9.1;8.3;6.6
72918;PMS7003;61063;55.700;26.994;2022-07-03T05:40:54;9.7;8.4;6.6
72918;PMS7003;61063;55.700;26.994;2022-07-03T05:45:54;7.8;6.8;5.6
72918;PMS7003;61063;55.700;26.994;2022-07-03T05:50:54;9.4;8.2;6.6
72918;PMS7003;61063;55.700;26.994;2022-07-03T05:55:54;9;8.1;6.3
72918;PMS7003;61063;55.700;26.994;2022-07-03T06:00:54;8.9;8.1;6.4
72918;PMS7003;61063;55.700;26.994;2022-07-03T06:05:54;10.1;8.7;6.8
72918;PMS7003;61063;55.700;26.994;2022-07-03T06:10:54;8.7;7.7;6.1
72918;PMS7003;61063;55.700;26.994;2022-07-03T06:15:54;8.8;7.6;5.9
72918;PMS7003;61063;55.700;26.994;2022-07-03T06:20:54;7.9;6.9;5.1
72918;PMS7003;61063;55.700;26.994;2022-07-03T06:25:54;8.2;7.4;6
72918;PMS7003;61063;55.700;26.994;2022-07-03T06:30:54;8.5;7.6;6.1
72918;PMS7003;61063;55.700;26.994;2022-07-03T06:35:54;8.3;7.5;6.1
72918;PMS7003;61063;55.700;26.994;2022-07-03T06:40:54;9.7;8.4;6.6
72918;PMS7003;61063;55.700;26.994;2022-07-03T06:45:54;8.7;7.5;6.1
72918;PMS7003;61063;55.700;26.994;2022-07-03T06:50:54;8.1;7.1;5.9
72918;PMS7003;61063;55.700;26.994;2022-07-03T06:55:54;9.5;7.6;6.1
72918;PMS7003;61063;55.700;26.994;2022-07-03T07:00:54;9.3;7.7;6.3
72918;PMS7003;61063;55.700;26.994;2022-07-03T07:05:54;7.3;6.5;5.3
72918;PMS7003;61063;55.700;26.994;2022-07-03T07:10:54;8.4;6.8;5.5
72918;PMS7003;61063;55.700;26.994;2022-07-03T07:15:54;6.4;5.8;4.8
72918;PMS7003;61063;55.700;26.994;2022-07-03T07:20:54;8.5;7.2;5.4
72918;PMS7003;61063;55.700;26.994;2022-07-03T07:25:54;9;8.3;6.4
72918;PMS7003;61063;55.700;26.994;2022-07-03T07:30:54;10.1;8.8;6.8
72918;PMS7003;61063;55.700;26.994;2022-07-03T07:35:54;11.5;9.1;7.1
72918;PMS7003;61063;55.700;26.994;2022-07-03T07:40:54;9;7.9;6.3
72918;PMS7003;61063;55.700;26.994;2022-07-03T07:45:54;9.7;8.7;7
72918;PMS7003;61063;55.700;26.994;2022-07-03T07:50:54;9.5;8.4;6.8
72918;PMS7003;61063;55.700;26.994;2022-07-03T07:55:54;10.2;9.1;6.9
72918;PMS7003;61063;55.700;26.994;2022-07-03T08:00:54;8.1;7.3;5.6
72918;PMS7003;61063;55.700;26.994;2022-07-03T08:05:54;9.2;8.1;6.1
72918;PMS7003;61063;55.700;26.994;2022-07-03T08:10:54;10.1;8.4;6.8
72918;PMS7003;61063;55.700;26.994;2022-07-03T08:15:54;7.7;6.4;5.3
72918;PMS7003;61063;55.700;26.994;2022-07-03T08:20:54;8.7;7.7;6.2
72918;PMS7003;61063;55.700;26.994;2022-07-03T08:25:54;8.8;8;6.4
72918;PMS7003;61063;55.700;26.994;2022-07-03T08:30:54;9.3;8.2;6.3
72918;PMS7003;61063;55.700;26.994;2022-07-03T08:35:54;9.5;8.5;6.7
72918;PMS7003;61063;55.700;26.994;2022-07-03T08:40:54;10;8.8;6.9
72918;PMS7003;61063;55.700;26.994;2022-07-03T08:45:54;8.3;7.4;5.3
72918;PMS7003;61063;55.700;26.994;2022-07-03T08:50:54;11.4;10.2;7.9
72918;PMS7003;61063;55.700;26.994;2022-07-03T08:55:54;10.3;8.7;6.8
72918;PMS7003;61063;55.700;26.994;2022-07-03T09:00:54;9.2;8.5;7
72918;PMS7003;61063;55.700;26.994;2022-07-03T09:05:55;13.5;11.5;8.8
72918;PMS7003;61063;55.700;26.994;2022-07-03T09:10:54;10.4;9.8;7.6
72918;PMS7003;61063;55.700;26.994;2022-07-03T09:15:54;9.1;8.4;6.5
72918;PMS7003;61063;55.700;26.994;2022-07-03T09:21:01;9.4;8.8;7
72918;PMS7003;61063;55.700;26.994;2022-07-03T09:25:55;9.8;8.6;6.9
72918;PMS7003;61063;55.700;26.994;2022-07-03T09:30:56;9.6;8.5;6.9
72918;PMS7003;61063;55.700;26.994;2022-07-03T09:35:54;9.4;8.1;6.4
72918;PMS7003;61063;55.700;26.994;2022-07-03T09:40:54;10;8.7;6.8
72918;PMS7003;61063;55.700;26.994;2022-07-03T09:45:55;10;8.8;6.9
72918;PMS7003;61063;55.700;26.994;2022-07-03T09:51:11;9.2;8.1;6.3
72918;PMS7003;61063;55.700;26.994;2022-07-03T09:55:55;10.4;8.8;7.1
72918;PMS7003;61063;55.700;26.994;2022-07-03T10:00:54;10.6;9.1;7.1
72918;PMS7003;61063;55.700;26.994;2022-07-03T10:05:56;9.8;9.2;7.5
72918;PMS7003;61063;55.700;26.994;2022-07-03T10:10:54;9.7;8.9;6.7
72918;PMS7003;61063;55.700;26.994;2022-07-03T10:15:54;9.7;9;7.2
72918;PMS7003;61063;55.700;26.994;2022-07-03T10:20:54;26.1;22.3;15.2
72918;PMS7003;61063;55.700;26.994;2022-07-03T10:25:54;62.3;51.7;29.3
72918;PMS7003;61063;55.700;26.994;2022-07-03T10:30:54;38.2;31.4;20.7
72918;PMS7003;61063;55.700;26.994;2022-07-03T10:35:54;18.4;16.3;12.2
72918;PMS7003;61063;55.700;26.994;2022-07-03T10:41:12;17.7;16;12.1
72918;PMS7003;61063;55.700;26.994;2022-07-03T10:46:10;13.5;12;9.2
72918;PMS7003;61063;55.700;26.994;2022-07-03T10:51:27;14.4;13.1;10.5
72918;PMS7003;61063;55.700;26.994;2022-07-03T10:56:03;14.6;13.6;10.4
72918;PMS7003;61063;55.700;26.994;2022-07-03T11:00:54;13.7;12.3;9.6
72918;PMS7003;61063;55.700;26.994;2022-07-03T11:05:54;12.9;11.6;8.9
72918;PMS7003;61063;55.700;26.994;2022-07-03T11:10:54;12;10.7;8.5
72918;PMS7003;61063;55.700;26.994;2022-07-03T11:15:54;13.4;11.9;9.6
72918;PMS7003;61063;55.700;26.994;2022-07-03T11:25:55;14;12.8;9.8
72918;PMS7003;61063;55.700;26.994;2022-07-03T11:31:18;11.2;10.7;8.7
72918;PMS7003;61063;55.700;26.994;2022-07-03T11:35:54;12;10.1;7.8
72918;PMS7003;61063;55.700;26.994;2022-07-03T11:40:55;11.2;10.2;8.1
72918;PMS7003;61063;55.700;26.994;2022-07-03T11:45:54;10;8.9;7.4
72918;PMS7003;61063;55.700;26.994;2022-07-03T11:51:02;10.4;9;7.4
72918;PMS7003;61063;55.700;26.994;2022-07-03T11:55:55;10.1;9.4;7.5
72918;PMS7003;61063;55.700;26.994;2022-07-03T12:00:54;10.5;9.1;7.3
72918;PMS7003;61063;55.700;26.994;2022-07-03T12:05:55;12.4;10.9;8.5
72918;PMS7003;61063;55.700;26.994;2022-07-03T12:11:01;16.9;14.4;10.7
72918;PMS7003;61063;55.700;26.994;2022-07-03T12:16:00;10.6;9.3;7.7
72918;PMS7003;61063;55.700;26.994;2022-07-03T12:20:54;15.3;12.8;10
72918;PMS7003;61063;55.700;26.994;2022-07-03T12:25:54;10.8;9.6;7.8
72918;PMS7003;61063;55.700;26.994;2022-07-03T12:30:54;9.3;7.9;6.4
72918;PMS7003;61063;55.700;26.994;2022-07-03T12:36:01;10.6;9.4;7.6
72918;PMS7003;61063;55.700;26.994;2022-07-03T12:41:10;9.1;8;6.3
72918;PMS7003;61063;55.700;26.994;2022-07-03T12:45:54;11.7;8.8;7.2
72918;PMS7003;61063;55.700;26.994;2022-07-03T12:50:54;10.3;9.2;7.5
72918;PMS7003;61063;55.700;26.994;2022-07-03T12:55:54;11.2;9.4;7.7
72918;PMS7003;61063;55.700;26.994;2022-07-03T13:00:54;8.9;8.1;6.7
72918;PMS7003;61063;55.700;26.994;2022-07-03T13:05:54;9.3;8.4;6.9
72918;PMS7003;61063;55.700;26.994;2022-07-03T13:10:56;10.5;9.3;7.3
72918;PMS7003;61063;55.700;26.994;2022-07-03T13:15:54;9.9;8.9;7.2
72918;PMS7003;61063;55.700;26.994;2022-07-03T13:20:54;9.7;7.9;6.5
72918;PMS7003;61063;55.700;26.994;2022-07-03T13:25:54;9.7;9.2;7.5
72918;PMS7003;61063;55.700;26.994;2022-07-03T13:30:54;10.2;9;7.4
72918;PMS7003;61063;55.700;26.994;2022-07-03T13:35:54;10.2;9.1;7.3
72918;PMS7003;61063;55.700;26.994;2022-07-03T13:40:54;9.6;8.9;7.3
72918;PMS7003;61063;55.700;26.994;2022-07-03T13:45:54;9.7;8.9;7
72918;PMS7003;61063;55.700;26.994;2022-07-03T13:50:54;9.4;8.8;7
72918;PMS7003;61063;55.700;26.994;2022-07-03T13:55:55;12.5;10.3;8.3
72918;PMS7003;61063;55.700;26.994;2022-07-03T14:00:54;12.9;11.8;9.7
72918;PMS7003;61063;55.700;26.994;2022-07-03T14:05:54;11.3;9.7;7.8
72918;PMS7003;61063;55.700;26.994;2022-07-03T14:10:54;10.5;9.8;7.8
72918;PMS7003;61063;55.700;26.994;2022-07-03T14:15:54;10.3;9.2;7.5
72918;PMS7003;61063;55.700;26.994;2022-07-03T14:20:54;9.6;8.8;7.1
72918;PMS7003;61063;55.700;26.994;2022-07-03T14:25:54;9.5;8.7;6.8
72918;PMS7003;61063;55.700;26.994;2022-07-03T14:30:54;8.3;7.9;6.4
72918;PMS7003;61063;55.700;26.994;2022-07-03T14:35:54;9.1;7.9;6.4
72918;PMS7003;61063;55.700;26.994;2022-07-03T14:40:54;9.1;8.1;6.7
72918;PMS7003;61063;55.700;26.994;2022-07-03T14:45:54;9.1;8.1;6.8
72918;PMS7003;61063;55.700;26.994;2022-07-03T14:50:54;9.1;8.1;6.5
72918;PMS7003;61063;55.700;26.994;2022-07-03T14:55:54;8.9;8.2;6.7
72918;PMS7003;61063;55.700;26.994;2022-07-03T15:00:54;8.9;8.4;6.8
72918;PMS7003;61063;55.700;26.994;2022-07-03T15:05:55;8.4;7.9;6.3
72918;PMS7003;61063;55.700;26.994;2022-07-03T15:10:55;9.4;9;7.4
72918;PMS7003;61063;55.700;26.994;2022-07-03T15:15:54;9.4;9.2;7.3
72918;PMS7003;61063;55.700;26.994;2022-07-03T15:20:54;9.5;8.5;6.7
72918;PMS7003;61063;55.700;26.994;2022-07-03T15:25:54;9.2;8.1;6.6
72918;PMS7003;61063;55.700;26.994;2022-07-03T15:30:54;8.8;7.9;6.1
72918;PMS7003;61063;55.700;26.994;2022-07-03T15:35:57;7.9;7.4;6.2
72918;PMS7003;61063;55.700;26.994;2022-07-03T15:40:55;9.5;8.4;6.8
72918;PMS7003;61063;55.700;26.994;2022-07-03T15:50:57;8.3;7.5;6.2
72918;PMS7003;61063;55.700;26.994;2022-07-03T15:55:57;8.8;7.6;6.1
72918;PMS7003;61063;55.700;26.994;2022-07-03T16:00:55;7.6;7;5.8
72918;PMS7003;61063;55.700;26.994;2022-07-03T16:05:55;8.4;7.2;6
72918;PMS7003;61063;55.700;26.994;2022-07-03T16:10:55;8.7;7.6;6.3
72918;PMS7003;61063;55.700;26.994;2022-07-03T16:15:56;8.5;7;5.8
72918;PMS7003;61063;55.700;26.994;2022-07-03T16:20:54;8.1;7.3;6
72918;PMS7003;61063;55.700;26.994;2022-07-03T16:25:55;8;7.1;5.7
72918;PMS7003;61063;55.700;26.994;2022-07-03T16:30:54;7.5;7;5.7
72918;PMS7003;61063;55.700;26.994;2022-07-03T16:35:56;7.7;6.6;5.6
72918;PMS7003;61063;55.700;26.994;2022-07-03T16:40:54;8.1;7.1;6
72918;PMS7003;61063;55.700;26.994;2022-07-03T16:45:54;9.2;7.8;6.2
72918;PMS7003;61063;55.700;26.994;2022-07-03T16:50:56;7.5;6.6;5.5
72918;PMS7003;61063;55.700;26.994;2022-07-03T16:55:54;7.2;6.7;5.6
72918;PMS7003;61063;55.700;26.994;2022-07-03T17:00:54;8.2;7.1;5.8
72918;PMS7003;61063;55.700;26.994;2022-07-03T17:05:54;8.2;7.4;6.2
72918;PMS7003;61063;55.700;26.994;2022-07-03T17:10:54;8;7.1;6
72918;PMS7003;61063;55.700;26.994;2022-07-03T17:15:55;8.1;7.3;6.1
72918;PMS7003;61063;55.700;26.994;2022-07-03T17:20:55;7.8;6.9;5.8
72918;PMS7003;61063;55.700;26.994;2022-07-03T17:26:03;7.6;7;5.9
72918;PMS7003;61063;55.700;26.994;2022-07-03T17:30:59;7.9;6.8;5.6
72918;PMS7003;61063;55.700;26.994;2022-07-03T17:36:13;6.5;6.2;5.4
72918;PMS7003;61063;55.700;26.994;2022-07-03T17:40:54;7.5;6.4;5.2
72918;PMS7003;61063;55.700;26.994;2022-07-03T17:45:55;7.9;6.6;5.3
72918;PMS7003;61063;55.700;26.994;2022-07-03T17:50:54;9.6;8.6;7
72918;PMS7003;61063;55.700;26.994;2022-07-03T17:55:54;9.3;7.8;6.4
72918;PMS7003;61063;55.700;26.994;2022-07-03T18:00:54;9.2;7.3;6.1
72918;PMS7003;61063;55.700;26.994;2022-07-03T18:05:54;8.7;7.5;6.2
72918;PMS7003;61063;55.700;26.994;2022-07-03T18:11:00;6.9;6.5;5.6
72918;PMS7003;61063;55.700;26.994;2022-07-03T18:15:55;8.1;7.2;6.1
72918;PMS7003;61063;55.700;26.994;2022-07-03T18:20:54;8.1;7;5.9
72918;PMS7003;61063;55.700;26.994;2022-07-03T18:25:54;9.8;8.4;7.2
72918;PMS7003;61063;55.700;26.994;2022-07-03T18:30:55;8.9;7.8;6.4
72918;PMS7003;61063;55.700;26.994;2022-07-03T18:35:54;8.8;8.3;6.9
72918;PMS7003;61063;55.700;26.994;2022-07-03T18:40:54;10.2;9.5;7.9
72918;PMS7003;61063;55.700;26.994;2022-07-03T18:45:54;13;12.1;9.8
72918;PMS7003;61063;55.700;26.994;2022-07-03T18:51:03;27;23.5;17
72918;PMS7003;61063;55.700;26.994;2022-07-03T18:55:56;22.6;20.6;16
72918;PMS7003;61063;55.700;26.994;2022-07-03T19:00:55;12.1;11.2;8.7
72918;PMS7003;61063;55.700;26.994;2022-07-03T19:06:10;11.3;9.5;7.5
72918;PMS7003;61063;55.700;26.994;2022-07-03T19:11:01;13.2;11.7;9.4
72918;PMS7003;61063;55.700;26.994;2022-07-03T19:15:56;12.1;10.3;8.3
72918;PMS7003;61063;55.700;26.994;2022-07-03T19:20:54;9.6;8.4;7
72918;PMS7003;61063;55.700;26.994;2022-07-03T19:25:54;10.9;8.9;7
72918;PMS7003;61063;55.700;26.994;2022-07-03T19:30:55;9.7;8.2;6.7
72918;PMS7003;61063;55.700;26.994;2022-07-03T19:35:54;9.8;7.8;6.5
72918;PMS7003;61063;55.700;26.994;2022-07-03T19:40:54;9.4;8.6;7
72918;PMS7003;61063;55.700;26.994;2022-07-03T19:45:54;8.9;8.2;6.6
72918;PMS7003;61063;55.700;26.994;2022-07-03T19:50:54;8.5;7.3;6.2
72918;PMS7003;61063;55.700;26.994;2022-07-03T19:55:54;8.3;7.4;6
72918;PMS7003;61063;55.700;26.994;2022-07-03T20:00:54;10;9;7.2
72918;PMS7003;61063;55.700;26.994;2022-07-03T20:05:54;9.5;8.5;7.2
72918;PMS7003;61063;55.700;26.994;2022-07-03T20:10:54;10.3;9.2;7.1
72918;PMS7003;61063;55.700;26.994;2022-07-03T20:15:54;10.3;8.3;6.8
72918;PMS7003;61063;55.700;26.994;2022-07-03T20:20:54;10.7;9.1;7.2
72918;PMS7003;61063;55.700;26.994;2022-07-03T20:25:54;9.8;8.9;7.4
72918;PMS7003;61063;55.700;26.994;2022-07-03T20:30:54;9.7;8.4;6.8
72918;PMS7003;61063;55.700;26.994;2022-07-03T20:35:54;10.5;9.2;7.6
72918;PMS7003;61063;55.700;26.994;2022-07-03T20:40:54;11.4;9.7;8
72918;PMS7003;61063;55.700;26.994;2022-07-03T20:45:54;10.5;8.9;7.2
72918;PMS7003;61063;55.700;26.994;2022-07-03T20:50:54;8.7;7.8;6.3
72918;PMS7003;61063;55.700;26.994;2022-07-03T20:55:54;9.3;8.3;6.6
72918;PMS7003;61063;55.700;26.994;2022-07-03T21:00:54;9.3;8.3;6.7
72918;PMS7003;61063;55.700;26.994;2022-07-03T21:05:54;8.6;7.7;6.3
72918;PMS7003;61063;55.700;26.994;2022-07-03T21:10:54;9;7.3;6.1
72918;PMS7003;61063;55.700;26.994;2022-07-03T21:15:54;8;7.2;5.8
72918;PMS7003;61063;55.700;26.994;2022-07-03T21:20:54;8.3;7.3;5.9
72918;PMS7003;61063;55.700;26.994;2022-07-03T21:25:54;8;7.4;6
72918;PMS7003;61063;55.700;26.994;2022-07-03T21:30:54;8.6;7.3;6
72918;PMS7003;61063;55.700;26.994;2022-07-03T21:35:54;8;7;5.6
72918;PMS7003;61063;55.700;26.994;2022-07-03T21:40:55;8;7;5.9
72918;PMS7003;61063;55.700;26.994;2022-07-03T21:45:54;7.9;7.5;6.1
72918;PMS7003;61063;55.700;26.994;2022-07-03T21:50:54;8.1;7.4;6
72918;PMS7003;61063;55.700;26.994;2022-07-03T21:55:54;10.7;8.9;7.2
72918;PMS7003;61063;55.700;26.994;2022-07-03T22:00:55;13.5;11.5;9.1
72918;PMS7003;61063;55.700;26.994;2022-07-03T22:05:54;12;10.7;8.1
72918;PMS7003;61063;55.700;26.994;2022-07-03T22:10:54;9.4;8.7;7.2
72918;PMS7003;61063;55.700;26.994;2022-07-03T22:15:54;8.5;7.8;6.5
72918;PMS7003;61063;55.700;26.994;2022-07-03T22:20:54;8.6;7.2;6
72918;PMS7003;61063;55.700;26.994;2022-07-03T22:25:54;8.7;7.9;6.7
72918;PMS7003;61063;55.700;26.994;2022-07-03T22:30:54;10;9.4;7.7
72918;PMS7003;61063;55.700;26.994;2022-07-03T22:35:54;9.4;7.6;6.2
72918;PMS7003;61063;55.700;26.994;2022-07-03T22:40:54;8.6;7.6;6.5
72918;PMS7003;61063;55.700;26.994;2022-07-03T22:45:54;8.2;7.6;6.3
72918;PMS7003;61063;55.700;26.994;2022-07-03T22:50:54;8.4;7.4;6.2
72918;PMS7003;61063;55.700;26.994;2022-07-03T22:55:54;8;6.9;5.9
72918;PMS7003;61063;55.700;26.994;2022-07-03T23:00:54;7.6;7;5.7
72918;PMS7003;61063;55.700;26.994;2022-07-03T23:05:54;6.9;5.9;5.2
72918;PMS7003;61063;55.700;26.994;2022-07-03T23:10:54;7.8;6.7;5.4
72918;PMS7003;61063;55.700;26.994;2022-07-03T23:15:54;8.1;7.4;6.1
72918;PMS7003;61063;55.700;26.994;2022-07-03T23:20:54;7.5;6.7;5.6
72918;PMS7003;61063;55.700;26.994;2022-07-03T23:25:54;7.3;6.5;5.3
72918;PMS7003;61063;55.700;26.994;2022-07-03T23:30:54;7.8;6.7;5.6
72918;PMS7003;61063;55.700;26.994;2022-07-03T23:35:54;7.2;6.8;5.7
72918;PMS7003;61063;55.700;26.994;2022-07-03T23:40:54;7.9;7;5.8
72918;PMS7003;61063;55.700;26.994;2022-07-03T23:45:54;8.4;7.3;6
72918;PMS7003;61063;55.700;26.994;2022-07-03T23:50:54;8.8;7.5;6
72918;PMS7003;61063;55.700;26.994;2022-07-03T23:55:54;8.1;7.3;5.8
